Portada
METAR-TAF:

METAR-TAF

Aeroports :

Aeroport de Can Tho

Cần Thơ, Vietnam

latitud: 10-05-07N, longitud: 105-42-43E, altitud: 3 m

Observació

L'informe es va fer fa 35 minuts, a les 23:00 UTC
Vent calma
Temperatura 24°C
Humitat 100%
Pressió 1010 hPa
Visibilitat: 8000 m

METAR: VVCT 032300Z 00000KT 8000 NSC 24/24 Q1010 NOSIG

Hora: 06:35 (23:35 UTC)

Pronòstic

L'informe es va fer fa 12 hores i 35 minuts, a les 11:00 UTC
Pronòstic vàlid del 03 a les 12 UTC al 04 a les 12 UTC
Vent 10 kt del Est
Visibilitat 10 km o més
Núvols disperses a una alçada de 1500 ft
Evolucionant progressivament
l' 03 a les 15 UTC al 03 a les 16 UTC
Vent 2 kt amb direcció variable
Evolucionant progressivament
l' 04 a les 01 UTC al 04 a les 02 UTC
Vent 10 kt del Est

TAF: VVCT 031100Z 0312/0412 09010KT 9999 SCT015 BECMG 0315/0316 VRB02KT BECMG 0401/0402 09010KT

Observacions i pronòstics meteorològics de més de 4000 aeroports (METAR i TAF).

Les estacions disponibles són els punts grocs i vermells al mapa.

Posi el ratolí al punt desitjat per veure el nom de l'estació.

Feu clic per veure les observacions i els pronòstics meteorològics.

Per canviar el mapa: feu clic els botons verds amb una creu de color negre per apropar; al botó verd amb un guió per allunyar la imatge; o en les fletxes verdes per a mapes adjacents.


METAR-TAF: